Terminal Aerodrome Forecast
Issued by NWS

Home | Current Version | Previous Version | Text Only | Print | Product List | Glossary On
Versions: 1 2 3 4 5 6 7 8 9 10 11 12 13 14 15 16 17 18
000
FTUS42 KTBW 300520
TAFRSW
TAF
KRSW 300520Z 3006/3106 05005KT P6SM SKC
     FM301900 30008KT P6SM FEW250
     FM310000 31004KT P6SM FEW250=

USA.gov is the U.S. government's official web portal to all federal, state and local government web resources and services.